Time;durP1;ratioP1;P1;durP2;ratioP2;P2;SDS_P1;SDS_P2;PMS_P1;PMS_P2;Temp;Humidity;BMP_temperature;BMP_pressure;BME280_temperature;BME280_humidity;BME280_pressure;Samples;Min_cycle;Max_cycle;Signal;HPM_P1;HPM_P2
2022/11/12 00:00:40;;;;;;;23.80;11.85;;;9.90;99.90;;;;;;5048666;28;25131;-74
2022/11/12 00:03:06;;;;;;;24.77;11.05;;;9.70;99.90;;;;;;5053001;28;25074;-71
2022/11/12 00:05:32;;;;;;;22.15;11.25;;;9.70;99.90;;;;;;5059868;28;25071;-71
2022/11/12 00:07:58;;;;;;;22.52;10.82;;;9.70;99.90;;;;;;5061732;28;25072;-73
2022/11/12 00:10:24;;;;;;;22.30;11.15;;;9.70;99.90;;;;;;5075600;28;25090;-71
2022/11/12 00:12:50;;;;;;;27.70;11.30;;;9.70;99.90;;;;;;5046213;28;25049;-73
2022/11/12 00:15:15;;;;;;;19.98;10.40;;;9.70;99.90;;;;;;5045194;28;25065;-73
2022/11/12 00:17:41;;;;;;;21.60;9.77;;;9.60;99.90;;;;;;5076353;28;25141;-73
2022/11/12 00:20:07;;;;;;;17.85;9.82;;;9.60;99.90;;;;;;5070405;28;25073;-75
2022/11/12 00:22:33;;;;;;;21.08;10.75;;;9.50;99.90;;;;;;5065724;28;25064;-73
2022/11/12 00:24:58;;;;;;;21.77;10.65;;;9.50;99.90;;;;;;5060293;28;25073;-74
2022/11/12 00:27:24;;;;;;;21.92;10.48;;;9.40;99.90;;;;;;5070733;28;25055;-72
2022/11/12 00:29:50;;;;;;;22.80;10.55;;;9.40;99.90;;;;;;5074715;28;25108;-73
2022/11/12 00:32:15;;;;;;;17.65;9.93;;;9.40;99.90;;;;;;5082773;28;25205;-72
2022/11/12 00:34:41;;;;;;;26.00;10.82;;;9.30;99.90;;;;;;5044779;28;25148;-73
2022/11/12 00:37:06;;;;;;;22.25;11.40;;;9.30;99.90;;;;;;5057299;28;25472;-73
2022/11/12 00:39:32;;;;;;;19.20;11.07;;;9.40;99.90;;;;;;5069995;28;25076;-77
2022/11/12 00:41:58;;;;;;;21.73;10.65;;;9.40;99.90;;;;;;5065467;28;25055;-75
2022/11/12 00:44:24;;;;;;;24.63;11.23;;;9.40;99.90;;;;;;5056551;28;25105;-73
2022/11/12 00:46:49;;;;;;;26.75;11.38;;;9.30;99.90;;;;;;5064407;28;25152;-74
2022/11/12 00:49:15;;;;;;;20.17;10.68;;;9.30;99.90;;;;;;5069915;28;25176;-72
2022/11/12 00:51:41;;;;;;;20.52;10.95;;;9.40;99.90;;;;;;5046207;28;25091;-73
2022/11/12 00:54:07;;;;;;;23.52;11.15;;;9.40;99.90;;;;;;5069705;28;25130;-73
2022/11/12 00:56:33;;;;;;;21.05;10.60;;;9.30;99.90;;;;;;5058473;28;25058;-73
2022/11/12 00:58:59;;;;;;;20.73;11.13;;;9.50;99.90;;;;;;5070324;28;25091;-73
2022/11/12 01:01:25;;;;;;;18.80;10.73;;;9.50;99.90;;;;;;5071242;28;25159;-73
2022/11/12 01:03:51;;;;;;;21.73;11.50;;;9.40;99.90;;;;;;5072849;28;25084;-73
2022/11/12 01:06:20;;;;;;;17.75;10.77;;;9.40;99.90;;;;;;5058275;28;25141;-74
2022/11/12 01:08:47;;;;;;;20.77;9.88;;;9.40;99.90;;;;;;5060346;28;25066;-72
2022/11/12 01:11:22;;;;;;;19.88;10.75;;;9.30;99.90;;;;;;5058469;28;25162;-72
2022/11/12 01:13:55;;;;;;;21.23;11.88;;;9.30;99.90;;;;;;5060624;28;25115;-73
2022/11/12 01:16:21;;;;;;;;;;;9.20;99.90;;;;;;5059060;28;25102;-72
2022/11/12 01:18:53;;;;;;;22.42;10.65;;;9.10;99.90;;;;;;5062087;28;24098;-72
2022/11/12 01:21:18;;;;;;;18.23;10.77;;;9.20;99.90;;;;;;5064755;28;25154;-72
2022/11/12 01:23:44;;;;;;;23.70;10.52;;;9.10;99.90;;;;;;5068884;28;25099;-73
2022/11/12 01:26:13;;;;;;;20.15;11.23;;;9.20;99.90;;;;;;5063948;28;25133;-72
2022/11/12 01:28:39;;;;;;;18.92;10.52;;;9.20;99.90;;;;;;5067078;28;25093;-72
2022/11/12 01:31:11;;;;;;;19.85;11.13;;;9.20;99.90;;;;;;5063050;28;25052;-73
2022/11/12 01:33:37;;;;;;;18.35;10.32;;;9.20;99.90;;;;;;5062486;28;25063;-73
2022/11/12 01:36:03;;;;;;;19.00;10.88;;;9.20;99.90;;;;;;5049218;28;25099;-74
2022/11/12 01:38:33;;;;;;;24.35;11.07;;;9.00;99.90;;;;;;5060921;28;25082;-73
2022/11/12 01:40:58;;;;;;;21.92;10.82;;;8.90;99.90;;;;;;5063279;28;25064;-73
2022/11/12 01:43:24;;;;;;;18.88;11.23;;;9.00;99.90;;;;;;5066760;28;25057;-73
2022/11/12 01:45:51;;;;;;;21.73;11.15;;;8.90;99.90;;;;;;5065845;28;25049;-73
2022/11/12 01:48:30;;;;;;;17.50;10.45;;;8.90;99.90;;;;;;5071186;28;25117;-73
2022/11/12 01:50:56;;;;;;;19.80;10.40;;;8.90;99.90;;;;;;5061204;28;25077;-73
2022/11/12 01:53:25;;;;;;;21.50;10.00;;;9.00;99.90;;;;;;5071795;28;25078;-74
2022/11/12 01:55:52;;;;;;;21.63;10.95;;;9.20;99.90;;;;;;5060567;28;25128;-73
2022/11/12 01:58:20;;;;;;;20.80;10.65;;;9.30;99.90;;;;;;5075184;28;25141;-72
2022/11/12 02:00:47;;;;;;;22.08;10.88;;;9.10;99.90;;;;;;5065583;28;25052;-73
2022/11/12 02:03:18;;;;;;;24.88;12.00;;;9.10;99.90;;;;;;5067310;28;25116;-72
2022/11/12 02:05:51;;;;;;;20.25;10.77;;;9.00;99.90;;;;;;5073008;28;25153;-73
2022/11/12 02:08:18;;;;;;;19.23;10.95;;;9.10;99.90;;;;;;5060720;28;25106;-73
2022/11/12 02:10:44;;;;;;;16.38;10.05;;;9.10;99.90;;;;;;5064439;28;25073;-72
2022/11/12 02:15:55;;;;;;;15.90;9.75;;;9.10;99.90;;;;;;5057440;28;25057;-73
2022/11/12 02:18:20;;;;;;;21.25;11.15;;;9.10;99.90;;;;;;5063981;28;25053;-72
2022/11/12 02:20:56;;;;;;;17.70;10.32;;;9.00;99.90;;;;;;5069655;28;25129;-73
2022/11/12 02:23:22;;;;;;;18.60;10.50;;;9.20;99.90;;;;;;5060320;28;25105;-73
2022/11/12 02:25:47;;;;;;;21.73;11.07;;;9.00;99.90;;;;;;5062346;28;25153;-73
2022/11/12 02:28:14;;;;;;;17.90;10.60;;;9.00;99.90;;;;;;5062526;28;25075;-72
2022/11/12 02:30:43;;;;;;;19.90;10.45;;;9.00;99.90;;;;;;5065578;28;25105;-72
2022/11/12 02:33:08;;;;;;;20.73;9.88;;;9.00;99.90;;;;;;5069086;28;25105;-72
2022/11/12 02:35:34;;;;;;;17.42;10.30;;;9.10;99.90;;;;;;5074558;28;25128;-73
2022/11/12 02:38:00;;;;;;;19.88;9.75;;;9.00;99.90;;;;;;5065627;28;25092;-72
2022/11/12 02:40:26;;;;;;;20.92;10.50;;;8.90;99.90;;;;;;5068712;28;25075;-73
2022/11/12 02:42:52;;;;;;;17.48;11.20;;;8.90;99.90;;;;;;5064616;28;25164;-72
2022/11/12 02:45:18;;;;;;;19.83;10.15;;;8.80;99.90;;;;;;5062525;28;25101;-73
2022/11/12 02:47:44;;;;;;;21.45;10.00;;;8.80;99.90;;;;;;5063286;28;25070;-73
2022/11/12 02:50:10;;;;;;;25.17;11.73;;;8.80;99.90;;;;;;5057905;28;25059;-72
2022/11/12 02:52:36;;;;;;;22.55;11.35;;;8.80;99.90;;;;;;5054026;28;25113;-73
2022/11/12 02:55:02;;;;;;;23.85;10.45;;;8.90;99.90;;;;;;5062971;28;25078;-73
2022/11/12 02:57:29;;;;;;;25.15;11.75;;;8.90;99.90;;;;;;5065828;28;25114;-71
2022/11/12 02:59:55;;;;;;;22.27;10.38;;;8.80;99.90;;;;;;5066462;28;25138;-73
2022/11/12 03:02:20;;;;;;;25.90;10.60;;;8.80;99.90;;;;;;5071060;28;25077;-72
2022/11/12 03:04:46;;;;;;;20.40;10.07;;;8.90;99.90;;;;;;5078655;28;25155;-72
2022/11/12 03:07:11;;;;;;;22.30;10.45;;;8.90;99.90;;;;;;5073946;28;25125;-73
2022/11/12 03:09:37;;;;;;;28.80;11.50;;;8.80;99.90;;;;;;5072399;28;25058;-72
2022/11/12 03:12:02;;;;;;;20.63;10.18;;;8.80;99.90;;;;;;5076528;28;25062;-73
2022/11/12 03:14:28;;;;;;;19.15;9.60;;;8.80;99.90;;;;;;5056937;28;25105;-72
2022/11/12 03:16:53;;;;;;;18.27;9.23;;;8.70;99.90;;;;;;5058153;28;25165;-73
2022/11/12 03:19:19;;;;;;;22.38;10.07;;;8.80;99.90;;;;;;5065059;28;25136;-73
2022/11/12 03:21:45;;;;;;;25.30;11.05;;;8.80;99.90;;;;;;5065468;28;25056;-73
2022/11/12 03:24:10;;;;;;;15.43;10.20;;;8.90;99.90;;;;;;5077424;28;25115;-73
2022/11/12 03:26:36;;;;;;;17.05;9.18;;;9.10;99.90;;;;;;5071373;28;25074;-72
2022/11/12 03:29:02;;;;;;;19.48;9.55;;;9.00;99.90;;;;;;5066222;28;25059;-73
2022/11/12 03:31:27;;;;;;;16.17;9.45;;;9.10;99.90;;;;;;5074571;28;25057;-72
2022/11/12 03:33:53;;;;;;;21.30;9.32;;;9.10;99.90;;;;;;5065036;28;25134;-74
2022/11/12 03:36:19;;;;;;;16.70;8.98;;;9.00;99.90;;;;;;5077159;28;25080;-73
2022/11/12 03:38:44;;;;;;;22.00;10.77;;;8.90;99.90;;;;;;5063199;28;25087;-72
2022/11/12 03:41:10;;;;;;;21.13;10.25;;;9.00;99.90;;;;;;5062747;28;25075;-74
2022/11/12 03:43:35;;;;;;;35.97;11.73;;;9.00;99.90;;;;;;5039086;28;25109;-73
2022/11/12 03:46:01;;;;;;;31.88;13.88;;;8.90;99.90;;;;;;5061602;28;25091;-73
2022/11/12 03:48:26;;;;;;;40.00;12.77;;;8.90;99.90;;;;;;5058765;28;25068;-74
2022/11/12 03:50:56;;;;;;;33.25;12.60;;;8.90;99.90;;;;;;5063604;28;25092;-73
2022/11/12 03:53:22;;;;;;;32.50;11.40;;;8.90;99.90;;;;;;5044152;28;25071;-72
2022/11/12 03:55:47;;;;;;;24.15;10.63;;;8.90;99.90;;;;;;5066172;28;25073;-73
2022/11/12 03:58:13;;;;;;;24.95;10.82;;;8.80;99.90;;;;;;5063425;28;25072;-73
2022/11/12 04:00:39;;;;;;;20.17;10.05;;;8.80;99.90;;;;;;5044119;28;25104;-73
2022/11/12 04:03:04;;;;;;;30.35;11.32;;;8.80;99.90;;;;;;5052202;28;25075;-73
2022/11/12 04:08:36;;;;;;;19.70;10.35;;;8.70;99.90;;;;;;5060675;28;25065;-73
2022/11/12 04:11:06;;;;;;;20.67;10.57;;;8.80;99.90;;;;;;5044586;28;25135;-73
2022/11/12 04:13:32;;;;;;;26.63;11.15;;;8.80;99.90;;;;;;5064610;28;25070;-73
2022/11/12 04:21:54;;;;;;;20.08;10.02;;;8.90;99.90;;;;;;5067543;28;25056;-74
2022/11/12 04:27:24;;;;;;;18.38;8.95;;;9.00;99.90;;;;;;5060026;28;25108;-74
2022/11/12 04:32:38;;;;;;;18.20;9.98;;;8.80;99.90;;;;;;5065398;28;25070;-73
2022/11/12 04:35:05;;;;;;;19.75;10.63;;;8.70;99.90;;;;;;5067836;28;25057;-73
2022/11/12 04:37:45;;;;;;;17.23;9.88;;;8.80;99.90;;;;;;5064643;28;25050;-74
2022/11/12 04:45:44;;;;;;;19.85;9.55;;;8.90;99.90;;;;;;5068440;28;25162;-73
2022/11/12 04:48:10;;;;;;;19.60;9.93;;;9.00;99.90;;;;;;5061462;28;25085;-74
2022/11/12 04:50:36;;;;;;;19.25;9.75;;;9.00;99.90;;;;;;5077666;28;25094;-72
2022/11/12 04:53:03;;;;;;;19.83;10.32;;;9.00;99.90;;;;;;5063060;28;25072;-73
2022/11/12 04:55:29;;;;;;;22.15;10.75;;;9.00;99.90;;;;;;5059455;28;25102;-73
2022/11/12 04:57:54;;;;;;;21.75;11.02;;;9.00;99.90;;;;;;5070733;28;25138;-74
2022/11/12 05:00:20;;;;;;;15.63;9.05;;;8.90;99.90;;;;;;5060131;28;25050;-73
2022/11/12 05:02:47;;;;;;;20.08;10.68;;;8.90;99.90;;;;;;5054847;28;25074;-73
2022/11/12 05:05:13;;;;;;;21.83;10.77;;;8.90;99.90;;;;;;5056320;28;25055;-75
2022/11/12 05:07:39;;;;;;;20.02;10.13;;;8.90;99.90;;;;;;5058312;28;25109;-75
2022/11/12 05:10:05;;;;;;;17.48;10.20;;;9.00;99.90;;;;;;5055882;28;25141;-75
2022/11/12 05:12:30;;;;;;;22.23;10.32;;;9.00;99.90;;;;;;5057599;28;25066;-74
2022/11/12 05:14:56;;;;;;;22.42;10.95;;;8.90;99.90;;;;;;5064311;28;25118;-74
2022/11/12 05:17:21;;;;;;;19.92;9.88;;;8.90;99.90;;;;;;5072441;28;25097;-75
2022/11/12 05:19:47;;;;;;;18.52;10.75;;;8.90;99.90;;;;;;5079081;28;25071;-74
2022/11/12 05:22:12;;;;;;;19.02;10.57;;;8.90;99.90;;;;;;5053951;28;25108;-74
2022/11/12 05:24:40;;;;;;;21.42;12.00;;;8.90;99.90;;;;;;5060305;28;25117;-74
2022/11/12 05:27:15;;;;;;;17.52;10.30;;;8.80;99.90;;;;;;5059814;28;25130;-74
2022/11/12 05:29:41;;;;;;;20.13;11.27;;;8.90;99.90;;;;;;5064962;28;25095;-73
2022/11/12 05:32:09;;;;;;;17.02;9.70;;;8.80;99.90;;;;;;5056340;28;25109;-73
2022/11/12 05:34:34;;;;;;;19.42;9.88;;;8.70;99.90;;;;;;5063094;28;25079;-75
2022/11/12 05:37:05;;;;;;;18.63;10.70;;;8.60;99.90;;;;;;5063439;28;25064;-74
2022/11/12 05:39:30;;;;;;;18.90;10.40;;;8.70;99.90;;;;;;5046438;28;25142;-74
2022/11/12 05:41:56;;;;;;;17.70;9.63;;;8.80;99.90;;;;;;5064113;28;25081;-74
2022/11/12 05:44:22;;;;;;;18.75;9.77;;;8.70;99.90;;;;;;5051809;28;25063;-74
2022/11/12 05:46:49;;;;;;;17.50;10.05;;;8.50;99.90;;;;;;5048372;28;25160;-74
2022/11/12 05:49:14;;;;;;;16.45;9.52;;;8.70;99.90;;;;;;5053575;28;25120;-74
2022/11/12 05:51:40;;;;;;;23.63;10.77;;;8.60;99.90;;;;;;5059600;28;25036;-72
2022/11/12 05:54:06;;;;;;;20.45;11.52;;;8.50;99.90;;;;;;5039567;28;25078;-73
2022/11/12 05:56:32;;;;;;;20.13;9.93;;;8.50;99.90;;;;;;5052802;28;25062;-73
2022/11/12 05:58:59;;;;;;;18.10;10.23;;;8.50;99.90;;;;;;5049872;28;25077;-74
2022/11/12 06:01:24;;;;;;;18.35;9.85;;;8.40;99.90;;;;;;5053750;28;25108;-73
2022/11/12 06:03:50;;;;;;;17.50;10.23;;;8.40;99.90;;;;;;5056426;28;25078;-75
2022/11/12 06:06:16;;;;;;;19.35;10.75;;;8.60;99.90;;;;;;5054127;28;25052;-74
2022/11/12 06:08:41;;;;;;;15.55;9.30;;;8.40;99.90;;;;;;5049406;28;25071;-74
2022/11/12 06:11:07;;;;;;;16.75;8.88;;;8.30;99.90;;;;;;5056380;28;25068;-73
2022/11/12 06:13:32;;;;;;;17.50;9.88;;;8.30;99.90;;;;;;5038558;28;25079;-73
2022/11/12 06:15:58;;;;;;;16.23;9.70;;;8.30;99.90;;;;;;5059215;28;25187;-73
2022/11/12 06:18:23;;;;;;;15.93;8.75;;;8.20;99.90;;;;;;5058134;28;25062;-73
2022/11/12 06:21:18;;;;;;;18.85;9.45;;;8.20;99.90;;;;;;5064409;28;25067;-74
2022/11/12 06:23:35;;;;;;;20.95;10.20;;;8.20;99.90;;;;;;5057044;28;25066;-73
2022/11/12 06:26:02;;;;;;;18.45;9.07;;;8.20;99.90;;;;;;5058181;28;25085;-72
2022/11/12 06:28:28;;;;;;;18.60;8.85;;;8.20;99.90;;;;;;5062727;28;25098;-73
2022/11/12 06:30:53;;;;;;;15.75;9.30;;;8.20;99.90;;;;;;5056210;28;25100;-75
2022/11/12 06:33:19;;;;;;;21.48;10.02;;;8.20;99.90;;;;;;5071389;28;25102;-73
2022/11/12 06:35:45;;;;;;;18.77;9.73;;;8.10;99.90;;;;;;5072272;28;25054;-73
2022/11/12 06:38:10;;;;;;;18.45;10.27;;;8.20;99.90;;;;;;5065774;28;25061;-74
2022/11/12 06:40:37;;;;;;;19.63;10.05;;;8.20;99.90;;;;;;5059220;28;25070;-73
2022/11/12 06:43:02;;;;;;;17.00;10.32;;;8.00;99.90;;;;;;5057063;28;25078;-73
2022/11/12 06:45:28;;;;;;;19.25;11.57;;;7.90;99.90;;;;;;5055609;28;25054;-74
2022/11/12 06:47:58;;;;;;;18.38;10.00;;;8.00;99.90;;;;;;5058881;28;25049;-76
2022/11/12 06:50:23;;;;;;;18.33;9.95;;;8.00;99.90;;;;;;5064764;28;25077;-74
2022/11/12 06:52:49;;;;;;;20.90;10.43;;;8.10;99.90;;;;;;5057698;28;25058;-74
2022/11/12 06:55:15;;;;;;;19.02;9.80;;;8.10;99.90;;;;;;5062513;28;25122;-74
2022/11/12 06:57:40;;;;;;;17.70;9.98;;;8.10;99.90;;;;;;5042515;28;25117;-72
2022/11/12 07:00:08;;;;;;;15.85;9.57;;;8.20;99.90;;;;;;5053319;28;25052;-73
2022/11/12 07:02:33;;;;;;;14.88;8.98;;;8.30;99.90;;;;;;5034836;28;25074;-74
2022/11/12 07:04:59;;;;;;;19.80;10.18;;;8.30;99.90;;;;;;5053383;28;25054;-73
2022/11/12 07:07:25;;;;;;;15.45;9.73;;;8.30;99.90;;;;;;5052300;28;25130;-73
2022/11/12 07:09:50;;;;;;;19.75;11.23;;;8.30;99.90;;;;;;5054606;28;25056;-74
2022/11/12 07:12:16;;;;;;;24.05;12.57;;;8.40;99.90;;;;;;5058421;28;25065;-72
2022/11/12 07:14:41;;;;;;;21.85;12.10;;;8.50;99.90;;;;;;5057413;28;25058;-74
2022/11/12 07:17:07;;;;;;;24.73;12.27;;;8.60;99.90;;;;;;5031024;28;25094;-73
2022/11/12 07:19:33;;;;;;;23.98;11.88;;;8.60;99.90;;;;;;5055993;28;25107;-74
2022/11/12 07:21:58;;;;;;;26.08;14.48;;;8.60;99.90;;;;;;5055471;28;25098;-74
2022/11/12 07:24:24;;;;;;;27.15;13.00;;;8.60;99.90;;;;;;5062905;28;25082;-74
2022/11/12 07:26:49;;;;;;;26.55;13.88;;;8.80;99.90;;;;;;5070111;28;25056;-72
2022/11/12 07:29:15;;;;;;;22.10;13.70;;;8.80;99.90;;;;;;5068663;28;25154;-74
2022/11/12 07:31:40;;;;;;;27.67;14.27;;;8.80;99.90;;;;;;5056833;28;25129;-73
2022/11/12 07:34:09;;;;;;;28.70;13.77;;;8.80;99.90;;;;;;5056961;28;25128;-74
2022/11/12 07:36:34;;;;;;;24.38;14.57;;;8.80;99.90;;;;;;5051631;28;25083;-74
2022/11/12 07:39:00;;;;;;;30.75;15.07;;;8.90;99.90;;;;;;5064058;28;25105;-74
2022/11/12 07:41:25;;;;;;;29.92;13.82;;;8.80;99.90;;;;;;5059905;28;25103;-74
2022/11/12 07:43:52;;;;;;;25.98;14.38;;;8.90;99.90;;;;;;5068872;28;25146;-73
2022/11/12 07:46:19;;;;;;;28.52;14.32;;;8.90;99.90;;;;;;5053718;28;25104;-74
2022/11/12 07:48:46;;;;;;;28.60;14.52;;;8.90;99.90;;;;;;5072209;28;25087;-74
2022/11/12 07:51:14;;;;;;;33.17;14.63;;;9.00;99.90;;;;;;5062838;28;24990;-74
2022/11/12 07:53:40;;;;;;;32.10;13.95;;;9.10;99.90;;;;;;5067783;28;25107;-73
2022/11/12 07:56:06;;;;;;;27.42;14.43;;;9.10;99.90;;;;;;5064745;28;25144;-73
2022/11/12 07:58:33;;;;;;;28.52;14.18;;;9.10;99.90;;;;;;5068320;28;25072;-73
2022/11/12 08:01:22;;;;;;;28.65;14.38;;;9.20;99.90;;;;;;5078782;28;25159;-73
2022/11/12 08:03:47;;;;;;;29.27;15.07;;;9.30;99.90;;;;;;5065550;28;25073;-74
2022/11/12 08:06:13;;;;;;;29.10;15.18;;;9.30;99.90;;;;;;5068219;28;25067;-73
2022/11/12 08:08:39;;;;;;;26.50;14.15;;;9.40;99.90;;;;;;5054473;28;25130;-73
2022/11/12 08:11:04;;;;;;;33.28;14.27;;;9.40;99.90;;;;;;5064226;28;25127;-74
2022/11/12 08:13:30;;;;;;;22.50;13.52;;;9.40;99.90;;;;;;5069460;28;25067;-73
2022/11/12 08:15:59;;;;;;;29.90;13.13;;;9.40;99.90;;;;;;5065120;28;25122;-74
2022/11/12 08:18:25;;;;;;;32.92;15.10;;;9.50;99.90;;;;;;5068403;28;25149;-75
2022/11/12 08:20:51;;;;;;;33.10;15.30;;;9.40;99.90;;;;;;5065888;28;25090;-73
2022/11/12 08:23:17;;;;;;;32.97;15.20;;;9.50;99.90;;;;;;5056182;28;25137;-74
2022/11/12 08:25:42;;;;;;;26.65;13.38;;;9.40;99.90;;;;;;5064994;28;25049;-72
2022/11/12 08:28:08;;;;;;;30.02;14.35;;;9.50;99.90;;;;;;5058344;28;25056;-74
2022/11/12 08:30:34;;;;;;;26.30;15.00;;;9.60;99.90;;;;;;5060671;28;25058;-74
2022/11/12 08:33:03;;;;;;;31.50;15.68;;;9.60;99.90;;;;;;5059894;28;25139;-74
2022/11/12 08:35:29;;;;;;;33.20;15.75;;;9.80;99.90;;;;;;5061714;28;25132;-75
2022/11/12 08:38:05;;;;;;;30.52;14.18;;;9.80;99.90;;;;;;5067150;28;25085;-74
2022/11/12 08:40:31;;;;;;;28.67;14.07;;;9.90;99.90;;;;;;5071137;28;25119;-74
2022/11/12 08:42:59;;;;;;;26.95;14.23;;;10.00;99.90;;;;;;5059347;28;25089;-73
2022/11/12 08:45:25;;;;;;;30.75;14.32;;;10.10;99.90;;;;;;5057287;28;25021;-73
2022/11/12 08:47:51;;;;;;;23.95;13.77;;;10.10;99.90;;;;;;5068508;28;25060;-74
2022/11/12 08:50:17;;;;;;;29.23;14.60;;;10.20;99.90;;;;;;5066164;28;25103;-74
2022/11/12 08:52:43;;;;;;;28.83;14.82;;;10.20;99.90;;;;;;5062189;28;25068;-74
2022/11/12 08:55:08;;;;;;;30.05;13.73;;;10.20;99.90;;;;;;5075283;28;25080;-74
2022/11/12 08:57:41;;;;;;;24.70;14.10;;;10.30;99.90;;;;;;5076627;28;25062;-74
2022/11/12 09:00:08;;;;;;;21.20;12.70;;;10.50;99.90;;;;;;5062122;28;25052;-74
2022/11/12 09:02:34;;;;;;;24.10;13.43;;;10.60;99.90;;;;;;5063858;28;25095;-73
2022/11/12 09:05:00;;;;;;;27.63;14.00;;;10.70;99.90;;;;;;5067849;28;25105;-72
2022/11/12 09:07:26;;;;;;;27.65;13.02;;;10.70;99.90;;;;;;5065504;28;25135;-75
2022/11/12 09:09:51;;;;;;;20.70;12.18;;;10.80;99.90;;;;;;5064878;28;25099;-73
2022/11/12 09:12:18;;;;;;;19.63;12.10;;;10.90;99.90;;;;;;5068455;28;25062;-74
2022/11/12 09:14:44;;;;;;;20.67;11.77;;;11.00;99.90;;;;;;5063840;28;25157;-73
2022/11/12 09:17:11;;;;;;;20.17;12.30;;;11.00;99.90;;;;;;5053154;28;25100;-75
2022/11/12 09:19:36;;;;;;;21.88;11.73;;;11.10;99.90;;;;;;5064136;28;25149;-74
2022/11/12 09:22:02;;;;;;;24.55;13.15;;;11.20;99.90;;;;;;5052501;28;25164;-73
2022/11/12 09:24:27;;;;;;;24.83;11.75;;;11.30;99.90;;;;;;5059657;28;25065;-73
2022/11/12 09:26:53;;;;;;;25.75;12.10;;;11.30;99.90;;;;;;5075183;28;25076;-74
2022/11/12 09:29:19;;;;;;;26.92;12.80;;;11.40;99.90;;;;;;5049284;28;25105;-73
2022/11/12 09:31:45;;;;;;;24.42;12.15;;;11.40;99.90;;;;;;5063600;28;25106;-73
2022/11/12 09:34:11;;;;;;;23.90;11.40;;;11.60;99.90;;;;;;5062668;28;25068;-75
2022/11/12 09:36:37;;;;;;;27.42;12.45;;;11.50;99.90;;;;;;5063017;28;25076;-75
2022/11/12 09:39:03;;;;;;;23.77;11.27;;;11.60;99.90;;;;;;5061117;28;25100;-73
2022/11/12 09:41:33;;;;;;;20.70;11.32;;;11.70;99.90;;;;;;5072979;28;25082;-73
2022/11/12 09:44:07;;;;;;;21.63;11.68;;;11.70;99.90;;;;;;5066530;28;25116;-75
2022/11/12 09:46:54;;;;;;;20.15;11.07;;;11.90;99.90;;;;;;5061945;28;25124;-73
2022/11/12 09:49:30;;;;;;;19.70;9.95;;;12.00;99.90;;;;;;5067210;28;25072;-72
2022/11/12 09:52:00;;;;;;;18.08;10.45;;;12.10;99.90;;;;;;5047511;28;25160;-74
2022/11/12 09:54:29;;;;;;;15.60;9.10;;;12.20;99.90;;;;;;5075466;28;25114;-74
2022/11/12 09:56:54;;;;;;;14.50;9.10;;;12.30;99.90;;;;;;5064660;28;25080;-73
2022/11/12 09:59:31;;;;;;;14.63;8.68;;;12.30;99.90;;;;;;5055289;28;25094;-73
2022/11/12 10:02:34;;;;;;;16.02;8.70;;;12.30;99.90;;;;;;5063292;28;25048;-74
2022/11/12 10:05:10;;;;;;;16.67;8.05;;;12.40;99.90;;;;;;5065392;28;25059;-72
2022/11/12 10:08:02;;;;;;;18.13;9.73;;;12.30;99.90;;;;;;5065622;28;25061;-73
2022/11/12 10:10:44;;;;;;;19.65;8.95;;;12.40;99.90;;;;;;5082626;28;25082;-73
2022/11/12 10:13:36;;;;;;;17.35;9.00;;;12.60;99.90;;;;;;5065767;28;25066;-72
2022/11/12 10:16:44;;;;;;;14.75;8.55;;;12.90;99.90;;;;;;5065775;28;25110;-74
2022/11/12 10:19:40;;;;;;;17.05;9.63;;;12.80;99.90;;;;;;5064899;28;25074;-73
2022/11/12 10:22:17;;;;;;;12.10;7.68;;;12.90;99.90;;;;;;5077172;28;25084;-75
2022/11/12 10:24:43;;;;;;;18.13;8.95;;;13.30;99.90;;;;;;5072819;28;25068;-74
2022/11/12 10:27:24;;;;;;;17.52;8.27;;;13.50;99.90;;;;;;5076792;28;25102;-73
2022/11/12 10:30:04;;;;;;;13.18;8.55;;;13.70;99.90;;;;;;5047253;28;25066;-73
2022/11/12 10:32:30;;;;;;;13.38;8.82;;;14.00;99.90;;;;;;5067992;28;25074;-74
2022/11/12 10:34:55;;;;;;;13.80;8.32;;;13.90;99.90;;;;;;5066317;28;25052;-74
2022/11/12 10:37:55;;;;;;;14.85;8.40;;;14.00;99.90;;;;;;5064163;28;25073;-73
2022/11/12 10:40:23;;;;;;;17.95;8.95;;;14.10;99.90;;;;;;5062149;28;25062;-74
2022/11/12 10:43:24;;;;;;;15.00;8.90;;;14.00;99.90;;;;;;5060961;28;25066;-73
2022/11/12 10:45:50;;;;;;;11.02;7.88;;;13.80;99.90;;;;;;4986719;28;25090;-72
2022/11/12 10:48:35;;;;;;;14.23;8.50;;;13.90;99.90;;;;;;5042075;28;25106;-73
2022/11/12 10:51:02;;;;;;;12.73;7.60;;;14.20;99.90;;;;;;5045465;28;25122;-72
2022/11/12 10:53:34;;;;;;;15.45;9.32;;;14.40;99.90;;;;;;5063745;28;25107;-73
2022/11/12 10:56:02;;;;;;;15.68;9.48;;;14.40;99.90;;;;;;5058846;28;25141;-73
2022/11/12 10:58:28;;;;;;;16.75;9.40;;;14.40;99.90;;;;;;5067801;28;25064;-73
2022/11/12 11:00:53;;;;;;;15.75;9.65;;;14.60;99.90;;;;;;5066144;28;25067;-74
2022/11/12 11:03:34;;;;;;;21.25;10.05;;;14.90;99.90;;;;;;5069751;28;25065;-74
2022/11/12 11:06:13;;;;;;;12.52;8.18;;;14.90;99.90;;;;;;5064880;28;25072;-73
2022/11/12 11:08:45;;;;;;;21.77;12.65;;;15.00;99.90;;;;;;5074325;28;25071;-74
2022/11/12 11:11:22;;;;;;;21.58;11.65;;;14.90;99.90;;;;;;5067010;28;25059;-73
2022/11/12 11:13:50;;;;;;;19.13;10.20;;;15.10;99.90;;;;;;5041245;28;25056;-73
2022/11/12 11:16:18;;;;;;;14.60;9.10;;;15.50;99.90;;;;;;5069690;28;25067;-73
2022/11/12 11:19:03;;;;;;;12.07;8.05;;;15.30;99.90;;;;;;5067286;28;25120;-72
2022/11/12 11:21:49;;;;;;;15.10;8.57;;;15.60;99.90;;;;;;5070437;28;25113;-73
2022/11/12 11:24:50;;;;;;;13.27;8.60;;;15.60;99.90;;;;;;5041080;28;25058;-73
2022/11/12 11:27:40;;;;;;;10.27;6.72;;;15.70;99.90;;;;;;5056596;28;25066;-72
2022/11/12 11:30:17;;;;;;;10.35;7.15;;;15.40;99.90;;;;;;5059225;28;25051;-73
2022/11/12 11:33:14;;;;;;;10.35;7.32;;;15.30;99.90;;;;;;5053874;28;25093;-73
2022/11/12 11:35:54;;;;;;;11.15;6.38;;;15.20;99.90;;;;;;5062616;28;25074;-73
2022/11/12 11:38:44;;;;;;;11.75;6.35;;;15.60;99.90;;;;;;5062277;28;25142;-73
2022/11/12 11:41:31;;;;;;;9.10;5.80;;;15.80;99.90;;;;;;5054462;28;25081;-73
2022/11/12 11:44:26;;;;;;;8.73;6.05;;;16.10;99.90;;;;;;5042147;28;25082;-73
2022/11/12 11:47:03;;;;;;;10.43;5.90;;;16.70;99.90;;;;;;5053923;28;25109;-73
2022/11/12 11:49:40;;;;;;;9.88;6.18;;;16.80;99.90;;;;;;5070944;28;25053;-76
2022/11/12 11:52:23;;;;;;;11.90;6.70;;;17.30;99.90;;;;;;5066489;28;25073;-74
2022/11/12 11:55:04;;;;;;;10.60;6.65;;;17.00;99.90;;;;;;5065370;28;25161;-74
2022/11/12 11:57:56;;;;;;;11.00;6.13;;;17.20;99.90;;;;;;5069463;28;25081;-74
2022/11/12 12:00:24;;;;;;;8.25;5.88;;;17.20;99.90;;;;;;5066247;28;25138;-73
2022/11/12 12:03:02;;;;;;;8.90;5.28;;;17.40;99.90;;;;;;5049770;28;25090;-74
2022/11/12 12:05:31;;;;;;;9.25;5.30;;;17.50;99.90;;;;;;5058523;28;25072;-73
2022/11/12 12:08:05;;;;;;;8.90;5.95;;;17.30;99.90;;;;;;5054140;28;25093;-73
2022/11/12 12:11:06;;;;;;;11.30;5.65;;;16.90;99.90;;;;;;5066874;28;25066;-73
2022/11/12 12:14:04;;;;;;;9.55;5.13;;;16.50;99.90;;;;;;5001044;28;25145;-73
2022/11/12 12:17:10;;;;;;;7.60;4.38;;;16.20;99.90;;;;;;5042948;28;25086;-73
2022/11/12 12:19:36;;;;;;;11.25;5.00;;;16.60;99.90;;;;;;4982046;28;25056;-72
2022/11/12 12:22:08;;;;;;;6.75;4.65;;;16.60;99.90;;;;;;5044482;28;25073;-73
2022/11/12 12:24:46;;;;;;;;;;;16.40;99.90;;;;;;5063674;28;25111;-72
2022/11/12 12:27:16;;;;;;;5.80;3.75;;;16.50;99.90;;;;;;5052118;28;25139;-73
2022/11/12 12:29:57;;;;;;;9.00;4.47;;;16.90;99.90;;;;;;5062347;28;25078;-73
2022/11/12 12:32:41;;;;;;;7.63;4.63;;;16.80;99.90;;;;;;5065903;28;25074;-73
2022/11/12 12:35:28;;;;;;;9.20;4.47;;;17.00;99.90;;;;;;5049635;28;25062;-72
2022/11/12 12:38:16;;;;;;;6.43;4.20;;;17.00;99.90;;;;;;5059536;28;25163;-73
2022/11/12 12:40:53;;;;;;;6.78;4.25;;;17.40;99.90;;;;;;5075942;28;25063;-72
2022/11/12 12:43:33;;;;;;;8.02;4.88;;;17.30;99.90;;;;;;5055281;28;25066;-73
2022/11/12 12:45:59;;;;;;;10.02;4.80;;;16.90;99.90;;;;;;5064656;28;25153;-74
2022/11/12 12:48:30;;;;;;;7.80;4.82;;;16.90;99.90;;;;;;5050055;28;25069;-72
2022/11/12 12:50:55;;;;;;;6.80;4.43;;;17.10;99.90;;;;;;5053384;28;25060;-72
2022/11/12 12:53:21;;;;;;;7.95;5.22;;;17.60;99.90;;;;;;5038483;28;25054;-72
2022/11/12 12:55:51;;;;;;;6.82;4.72;;;17.90;99.90;;;;;;5045784;28;25061;-73
2022/11/12 12:58:25;;;;;;;7.03;5.00;;;18.00;99.90;;;;;;5063385;28;25099;-72
2022/11/12 13:00:56;;;;;;;9.40;4.93;;;17.70;99.90;;;;;;5066037;28;25055;-74
2022/11/12 13:03:44;;;;;;;9.07;5.38;;;17.10;99.90;;;;;;5060886;28;25056;-73
2022/11/12 13:06:22;;;;;;;5.57;4.13;;;16.40;99.90;;;;;;5050767;28;25078;-73
2022/11/12 13:08:53;;;;;;;7.38;4.68;;;16.20;99.90;;;;;;5062674;28;25064;-73
2022/11/12 13:14:34;;;;;;;6.78;4.85;;;15.50;99.90;;;;;;5078901;28;25168;-72
2022/11/12 13:17:09;;;;;;;10.50;4.82;;;15.10;99.90;;;;;;5072173;28;25163;-73